Time;durP1;ratioP1;P1;durP2;ratioP2;P2;SDS_P1;SDS_P2;PMS_P1;PMS_P2;Temp;Humidity;BMP_temperature;BMP_pressure;BME280_temperature;BME280_humidity;BME280_pressure;Samples;Min_cycle;Max_cycle;Signal;HPM_P1;HPM_P2
2022/02/14 00:01:09;;;;;;;12.68;5.28;;;;;;;8.80;47.45;100647.41;4994398;28;97335;-77
2022/02/14 00:03:36;;;;;;;11.27;4.72;;;;;;;8.29;48.24;100632.16;4988527;28;99266;-77
2022/02/14 00:06:02;;;;;;;9.90;4.90;;;;;;;8.76;47.39;100625.56;4992389;28;99377;-75
2022/02/14 00:08:28;;;;;;;10.50;5.38;;;;;;;8.58;47.75;100630.50;4988855;28;96886;-77
2022/02/14 00:10:56;;;;;;;15.07;5.18;;;;;;;8.60;47.86;100637.44;4993791;28;97384;-76
2022/02/14 00:13:22;;;;;;;13.27;5.53;;;;;;;8.45;47.88;100629.13;4989864;28;101416;-76
2022/02/14 00:15:50;;;;;;;9.20;5.03;;;;;;;8.46;47.87;100626.47;4994534;28;101461;-76
2022/02/14 00:18:17;;;;;;;14.57;5.50;;;;;;;8.72;47.45;100623.06;4995398;28;98776;-76
2022/02/14 00:20:43;;;;;;;15.93;5.25;;;;;;;8.60;47.64;100613.75;4993478;28;97041;-77
2022/02/14 00:23:10;;;;;;;12.50;5.13;;;;;;;9.02;46.73;100622.13;4995260;28;101576;-75
2022/02/14 00:25:36;;;;;;;11.18;5.32;;;;;;;8.75;47.20;100609.78;5002448;28;98873;-77
2022/02/14 00:28:04;;;;;;;10.15;5.15;;;;;;;8.57;47.63;100615.63;4997930;28;96843;-76
2022/02/14 00:30:31;;;;;;;8.52;4.25;;;;;;;8.82;46.81;100610.47;4989941;28;96937;-76
2022/02/14 00:32:57;;;;;;;13.10;4.93;;;;;;;8.56;47.53;100613.88;4991310;28;98863;-75
2022/02/14 00:35:24;;;;;;;10.00;4.70;;;;;;;8.35;47.85;100610.97;4989144;28;98773;-76
2022/02/14 00:37:50;;;;;;;9.05;4.47;;;;;;;8.36;48.00;100610.06;4990203;28;97107;-75
2022/02/14 00:40:17;;;;;;;9.95;4.53;;;;;;;8.62;47.46;100605.81;4994255;28;96733;-75
2022/02/14 00:42:45;;;;;;;12.50;5.22;;;;;;;8.79;47.07;100603.53;4993062;28;101375;-76
2022/02/14 00:45:12;;;;;;;12.18;5.20;;;;;;;9.22;46.04;100597.78;4995327;28;99193;-75
2022/02/14 00:47:39;;;;;;;10.27;4.78;;;;;;;9.21;46.18;100590.78;4990593;28;96725;-76
2022/02/14 00:50:08;;;;;;;10.90;5.28;;;;;;;8.90;46.25;100590.88;4995304;28;96679;-76
2022/02/14 00:52:34;;;;;;;15.68;4.78;;;;;;;8.63;47.01;100591.72;4993933;28;100239;-75
2022/02/14 00:55:00;;;;;;;9.80;4.63;;;;;;;8.71;46.90;100587.09;4994301;28;99278;-76
2022/02/14 00:57:28;;;;;;;10.48;4.70;;;;;;;8.77;46.40;100586.91;4991542;28;96774;-76
2022/02/14 00:59:54;;;;;;;12.02;4.85;;;;;;;8.58;47.25;100588.38;4994211;28;96866;-76
2022/02/14 01:02:22;;;;;;;10.73;4.55;;;;;;;8.62;46.86;100577.69;4993316;28;99208;-76
2022/02/14 01:04:48;;;;;;;13.13;5.00;;;;;;;8.67;46.89;100585.44;4989079;28;98942;-75
2022/02/14 01:07:15;;;;;;;12.23;5.03;;;;;;;8.46;46.94;100573.81;4994301;28;97196;-75
2022/02/14 01:09:42;;;;;;;9.98;4.40;;;;;;;7.80;48.48;100581.78;4991511;28;96842;-75
2022/02/14 01:12:10;;;;;;;14.23;4.60;;;;;;;8.20;47.84;100571.91;4988427;28;98975;-75
2022/02/14 01:14:36;;;;;;;12.15;5.45;;;;;;;8.03;48.20;100574.13;4989854;28;99041;-75
2022/02/14 01:17:03;;;;;;;11.95;5.25;;;;;;;8.10;48.21;100572.19;4988292;28;96837;-75
2022/02/14 01:19:30;;;;;;;11.48;4.65;;;;;;;8.44;47.15;100570.34;4992075;28;96743;-75
2022/02/14 01:21:57;;;;;;;12.65;4.95;;;;;;;8.51;46.83;100568.41;4992657;28;99195;-75
2022/02/14 01:24:23;;;;;;;11.68;4.60;;;;;;;8.18;47.57;100564.94;4993421;28;99082;-75
2022/02/14 01:26:50;;;;;;;10.27;4.55;;;;;;;8.32;47.32;100568.06;4993573;28;98010;-75
2022/02/14 01:29:17;;;;;;;15.20;5.72;;;;;;;8.21;47.44;100568.34;4983245;28;97009;-75
2022/02/14 01:31:43;;;;;;;7.88;4.38;;;;;;;8.33;47.19;100570.66;4986348;28;99054;-76
2022/02/14 01:34:10;;;;;;;14.50;4.97;;;;;;;8.55;46.73;100559.47;4992379;28;102352;-75
2022/02/14 01:36:37;;;;;;;10.07;4.75;;;;;;;8.17;47.26;100569.34;4992181;28;98344;-75
2022/02/14 01:39:04;;;;;;;12.40;4.95;;;;;;;8.25;47.17;100564.72;4993825;28;96779;-75
2022/02/14 01:41:30;;;;;;;14.13;5.10;;;;;;;8.38;46.76;100555.59;4988635;28;99325;-75
2022/02/14 01:43:57;;;;;;;7.78;4.60;;;;;;;8.33;46.97;100561.91;4987566;28;99338;-75
2022/02/14 01:46:23;;;;;;;9.05;4.05;;;;;;;8.63;45.69;100549.59;4986983;28;97587;-75
2022/02/14 01:48:50;;;;;;;10.95;4.50;;;;;;;8.42;46.57;100542.31;4989614;28;98300;-76
2022/02/14 01:51:17;;;;;;;11.55;4.85;;;;;;;8.51;45.91;100532.38;4984922;28;98106;-75
2022/02/14 01:53:44;;;;;;;11.82;4.85;;;;;;;8.60;45.79;100533.91;4993232;28;98772;-76
2022/02/14 01:56:11;;;;;;;9.30;4.57;;;;;;;8.56;45.60;100527.84;4995042;28;96734;-74
2022/02/14 01:58:38;;;;;;;10.63;4.18;;;;;;;8.70;45.20;100525.66;4990454;28;96889;-75
2022/02/14 02:01:04;;;;;;;8.50;4.75;;;;;;;8.44;45.59;100516.81;5020846;22;100062;-69
2022/02/14 02:03:31;;;;;;;10.32;4.50;;;;;;;8.54;45.48;100513.84;4993843;28;101874;-70
2022/02/14 02:05:59;;;;;;;12.70;4.72;;;;;;;8.58;45.07;100509.38;4989067;28;96708;-68
2022/02/14 02:08:25;;;;;;;9.60;4.28;;;;;;;8.32;45.59;100507.53;4993671;28;96853;-69
2022/02/14 02:12:22;;;;;;;7.38;4.32;;;;;;;8.46;45.31;100509.75;4990594;28;99324;-70
2022/02/14 02:13:48;;;;;;;11.35;4.35;;;;;;;8.50;45.20;100506.09;4988198;28;99022;-71
2022/02/14 02:16:15;;;;;;;7.13;4.07;;;;;;;8.53;44.80;100500.75;4984854;28;97093;-70
2022/02/14 02:18:42;;;;;;;11.73;3.85;;;;;;;8.39;44.57;100494.13;4989777;28;97370;-69
2022/02/14 02:21:09;;;;;;;10.50;3.95;;;;;;;8.69;44.70;100499.34;4991220;28;98335;-71
2022/02/14 02:23:39;;;;;;;10.25;4.30;;;;;;;8.34;45.06;100505.69;4989102;28;98919;-70
2022/02/14 02:26:07;;;;;;;13.60;4.32;;;;;;;8.53;44.86;100490.22;4985644;28;97358;-71
2022/02/14 02:28:34;;;;;;;8.75;3.92;;;;;;;8.71;44.38;100487.84;4987329;28;96904;-71
2022/02/14 02:31:01;;;;;;;13.52;4.30;;;;;;;8.53;44.38;100493.72;4984500;28;99203;-70
2022/02/14 02:33:30;;;;;;;7.20;4.38;;;;;;;8.38;44.82;100487.13;4988795;28;99339;-71
2022/02/14 02:35:56;;;;;;;7.18;4.03;;;;;;;8.68;44.39;100485.31;4979717;28;96716;-69
2022/02/14 02:38:23;;;;;;;8.13;3.85;;;;;;;8.44;44.80;100486.09;4987036;28;98603;-70
2022/02/14 02:40:49;;;;;;;6.45;3.42;;;;;;;7.96;45.33;100483.09;4985871;28;99080;-70
2022/02/14 02:43:17;;;;;;;7.53;3.78;;;;;;;8.04;45.50;100486.38;4990607;28;98868;-71
2022/02/14 02:45:44;;;;;;;12.80;3.63;;;;;;;8.38;44.68;100470.47;4991325;28;96701;-70
2022/02/14 02:48:11;;;;;;;4.88;3.22;;;;;;;8.41;44.40;100470.38;4989777;28;96996;-70
2022/02/14 02:51:01;;;;;;;9.13;3.72;;;;;;;8.32;44.70;100463.63;4989042;28;99067;-70
2022/02/14 02:53:23;;;;;;;7.90;3.40;;;;;;;8.44;44.36;100464.16;4985414;28;98523;-71
2022/02/14 02:55:50;;;;;;;8.20;3.67;;;;;;;8.53;44.11;100450.72;4989154;28;98668;-70
2022/02/14 02:58:17;;;;;;;8.65;3.60;;;;;;;8.21;44.74;100451.66;4991428;28;96811;-71
2022/02/14 03:00:44;;;;;;;10.93;4.45;;;;;;;8.10;44.96;100454.63;4991299;28;99060;-71
2022/02/14 03:03:10;;;;;;;7.97;3.42;;;;;;;8.24;44.97;100441.91;4993806;28;99390;-70
2022/02/14 03:05:36;;;;;;;7.95;3.30;;;;;;;7.82;45.19;100438.78;4992568;28;96706;-71
2022/02/14 03:08:03;;;;;;;8.38;3.58;;;;;;;8.16;44.91;100440.41;4992864;28;96878;-70
2022/02/14 03:10:29;;;;;;;6.60;3.42;;;;;;;8.39;44.16;100435.34;4992828;28;99478;-69
2022/02/14 03:12:55;;;;;;;6.65;3.38;;;;;;;7.81;45.15;100433.59;4987118;28;99238;-71
2022/02/14 03:15:23;;;;;;;8.75;3.70;;;;;;;7.87;44.96;100433.41;4993321;28;97669;-70
2022/02/14 03:17:50;;;;;;;7.78;3.60;;;;;;;8.06;44.27;100429.31;4992553;28;96949;-70
2022/02/14 03:20:17;;;;;;;7.38;3.80;;;;;;;8.00;44.56;100421.59;4990827;28;99013;-71
2022/02/14 03:22:43;;;;;;;7.22;3.30;;;;;;;7.94;44.49;100430.53;4993998;28;97771;-70
2022/02/14 03:25:13;;;;;;;10.55;3.35;;;;;;;7.59;45.08;100418.41;4992665;28;97757;-70
2022/02/14 03:27:39;;;;;;;7.65;3.40;;;;;;;7.97;44.20;100412.03;4994120;28;97466;-70
2022/02/14 03:30:06;;;;;;;7.10;3.10;;;;;;;8.14;43.61;100414.13;4992140;28;99070;-70
2022/02/14 03:32:34;;;;;;;6.25;3.28;;;;;;;8.02;43.45;100404.84;4986998;28;98831;-69
2022/02/14 03:35:00;;;;;;;6.53;3.28;;;;;;;8.07;43.59;100402.09;4989864;28;96894;-70
2022/02/14 03:37:27;;;;;;;9.10;3.33;;;;;;;8.08;43.69;100403.78;4989570;28;97484;-69
2022/02/14 03:39:53;;;;;;;7.90;3.20;;;;;;;7.57;44.01;100395.69;4990746;28;99036;-71
2022/02/14 03:42:19;;;;;;;7.85;3.08;;;;;;;7.74;44.04;100395.22;4992038;28;99155;-70
2022/02/14 03:44:46;;;;;;;5.82;3.05;;;;;;;8.07;43.73;100396.84;4989422;28;96803;-70
2022/02/14 03:47:12;;;;;;;8.40;3.45;;;;;;;7.61;44.09;100386.81;4992805;28;96745;-70
2022/02/14 03:49:39;;;;;;;9.30;3.47;;;;;;;8.13;43.02;100386.13;4989779;28;99629;-69
2022/02/14 03:52:06;;;;;;;7.93;3.53;;;;;;;7.82;43.59;100378.28;4992719;28;99122;-71
2022/02/14 03:54:33;;;;;;;9.02;3.90;;;;;;;7.59;44.14;100371.09;4986025;28;96766;-71
2022/02/14 03:56:59;;;;;;;6.80;3.33;;;;;;;7.51;44.12;100369.56;4983349;28;98349;-71
2022/02/14 03:59:25;;;;;;;9.48;3.40;;;;;;;7.53;43.86;100360.75;4986222;28;98983;-70
2022/02/14 04:01:52;;;;;;;9.73;3.60;;;;;;;8.03;43.05;100368.88;4978981;28;99374;-69
2022/02/14 04:04:18;;;;;;;8.13;3.42;;;;;;;7.87;43.26;100355.34;4986182;28;96789;-69
2022/02/14 04:06:46;;;;;;;6.38;3.30;;;;;;;7.16;44.74;100344.28;4986917;28;96992;-70
2022/02/14 04:09:12;;;;;;;9.95;3.83;;;;;;;7.48;43.91;100348.66;4991628;28;99595;-70
2022/02/14 04:11:38;;;;;;;8.00;3.33;;;;;;;7.55;43.78;100343.13;4989618;28;99548;-70
2022/02/14 04:14:05;;;;;;;6.18;3.03;;;;;;;7.92;42.87;100339.41;4991044;28;96828;-69
2022/02/14 04:16:31;;;;;;;9.13;3.40;;;;;;;7.91;42.88;100338.53;4984667;28;96967;-70
2022/02/14 04:18:58;;;;;;;8.32;3.28;;;;;;;7.79;43.15;100341.56;4991475;28;99163;-70
2022/02/14 04:21:24;;;;;;;12.93;3.35;;;;;;;7.78;43.08;100338.97;4989056;28;98885;-70
2022/02/14 04:23:51;;;;;;;8.10;3.78;;;;;;;7.87;42.95;100330.81;4992273;28;96890;-71
2022/02/14 04:26:18;;;;;;;7.65;3.90;;;;;;;7.80;42.76;100334.53;4991944;28;96895;-70
2022/02/14 04:28:44;;;;;;;11.50;3.70;;;;;;;7.76;42.80;100332.88;4985533;28;99374;-70
2022/02/14 04:31:10;;;;;;;7.05;3.25;;;;;;;7.67;42.83;100328.78;4999671;28;99115;-70
2022/02/14 04:33:37;;;;;;;7.97;3.17;;;;;;;7.52;43.27;100334.50;4989509;28;96989;-70
2022/02/14 04:36:03;;;;;;;8.00;3.42;;;;;;;7.55;43.12;100329.13;4987632;28;97359;-71
2022/02/14 04:38:30;;;;;;;11.23;3.50;;;;;;;7.75;42.44;100328.53;4987648;28;99342;-71
2022/02/14 04:40:57;;;;;;;9.77;3.08;;;;;;;7.80;42.31;100334.53;4991896;28;100281;-71
2022/02/14 04:43:24;;;;;;;6.10;3.58;;;;;;;7.80;42.15;100324.88;4992051;28;98221;-71
2022/02/14 04:45:50;;;;;;;7.25;2.95;;;;;;;7.51;42.98;100323.13;4987685;28;96792;-72
2022/02/14 04:48:17;;;;;;;7.55;3.22;;;;;;;7.53;42.77;100329.19;4991290;28;99442;-70
2022/02/14 04:50:43;;;;;;;11.60;3.50;;;;;;;7.75;42.44;100326.75;4990191;28;99262;-71
2022/02/14 04:53:09;;;;;;;7.20;2.97;;;;;;;7.44;43.30;100326.81;4986389;28;96682;-70
2022/02/14 04:55:36;;;;;;;8.77;3.45;;;;;;;7.59;42.61;100325.53;4992491;28;96897;-70
2022/02/14 04:58:03;;;;;;;6.78;3.35;;;;;;;7.92;41.96;100326.25;4991565;28;98914;-70
2022/02/14 05:00:31;;;;;;;7.97;3.10;;;;;;;8.17;41.41;100329.81;4989080;28;99337;-71
2022/02/14 05:02:57;;;;;;;8.23;3.55;;;;;;;8.01;41.16;100326.81;4987615;28;98430;-70
2022/02/14 05:05:23;;;;;;;10.60;3.35;;;;;;;7.87;41.62;100322.91;4992734;28;96835;-70
2022/02/14 05:07:50;;;;;;;7.63;3.35;;;;;;;7.80;41.76;100324.00;4986657;28;99382;-71
2022/02/14 05:10:17;;;;;;;12.00;3.65;;;;;;;8.12;41.18;100320.38;4991536;28;98422;-70
2022/02/14 05:12:43;;;;;;;4.72;2.83;;;;;;;8.47;40.69;100319.25;4986868;28;97477;-70
2022/02/14 05:15:11;;;;;;;7.30;3.42;;;;;;;8.09;41.07;100329.22;4990737;28;98469;-71
2022/02/14 05:17:37;;;;;;;6.25;3.05;;;;;;;8.40;40.74;100322.06;4991299;28;99509;-70
2022/02/14 05:20:06;;;;;;;10.05;3.80;;;;;;;7.99;41.04;100318.13;4989390;28;98223;-70
2022/02/14 05:22:32;;;;;;;8.82;3.17;;;;;;;8.07;40.90;100317.88;4986444;28;96657;-69
2022/02/14 05:24:58;;;;;;;6.85;2.70;;;;;;;7.63;42.05;100315.75;4991360;28;97371;-70
2022/02/14 05:27:25;;;;;;;5.72;3.85;;;;;;;8.03;41.03;100316.25;4990144;28;99333;-71
2022/02/14 05:29:51;;;;;;;7.18;3.83;;;;;;;8.12;40.72;100310.69;4986003;28;99020;-71
2022/02/14 05:32:19;;;;;;;19.60;4.20;;;;;;;8.38;40.51;100315.16;4991905;28;96834;-71
2022/02/14 05:34:45;;;;;;;10.52;3.63;;;;;;;8.22;40.57;100312.09;4990863;28;96910;-70
2022/02/14 05:37:12;;;;;;;8.10;3.05;;;;;;;8.05;41.23;100306.53;4990046;28;99073;-70
2022/02/14 05:39:38;;;;;;;6.53;3.42;;;;;;;8.19;40.19;100306.09;4989471;28;99060;-70
2022/02/14 05:42:05;;;;;;;6.47;3.50;;;;;;;8.00;40.78;100309.34;4991014;28;96840;-72
2022/02/14 05:44:31;;;;;;;7.05;3.70;;;;;;;8.07;40.80;100311.75;4991571;28;96907;-71
2022/02/14 05:46:58;;;;;;;8.40;3.30;;;;;;;8.12;40.83;100315.09;4984509;28;98981;-71
2022/02/14 05:49:25;;;;;;;18.15;3.35;;;;;;;8.22;40.57;100306.84;4987642;28;101903;-70
2022/02/14 05:51:52;;;;;;;9.00;3.33;;;;;;;8.23;40.52;100311.19;4984860;28;96971;-70
2022/02/14 05:54:18;;;;;;;10.65;3.75;;;;;;;8.09;40.73;100309.91;4988086;28;96968;-71
2022/02/14 05:56:45;;;;;;;7.72;3.63;;;;;;;8.11;40.75;100311.59;4987070;28;97708;-71
2022/02/14 05:59:11;;;;;;;6.97;2.83;;;;;;;7.85;40.98;100317.69;4984814;28;99130;-69
2022/02/14 06:01:37;;;;;;;7.43;3.10;;;;;;;7.88;40.80;100306.19;4985901;28;96887;-71
2022/02/14 06:04:04;;;;;;;10.63;3.58;;;;;;;7.83;41.36;100313.38;4991187;28;97201;-70
2022/02/14 06:06:32;;;;;;;9.48;3.70;;;;;;;7.52;41.72;100303.81;4989372;28;99716;-71
2022/02/14 06:08:59;;;;;;;8.40;4.10;;;;;;;7.75;41.31;100304.84;4988683;28;99286;-70
2022/02/14 06:11:25;;;;;;;10.60;3.92;;;;;;;7.88;41.31;100300.94;4990008;28;96821;-71
2022/02/14 06:13:51;;;;;;;8.82;3.80;;;;;;;7.69;41.70;100297.16;4989613;28;96844;-70
2022/02/14 06:16:18;;;;;;;7.88;4.40;;;;;;;7.85;41.11;100301.06;4995430;28;98914;-73
2022/02/14 06:18:44;;;;;;;11.02;3.20;;;;;;;7.98;41.14;100305.00;4989377;28;98314;-71
2022/02/14 06:21:11;;;;;;;8.95;3.65;;;;;;;8.07;41.15;100296.84;4981039;28;98669;-71
2022/02/14 06:23:38;;;;;;;5.88;3.50;;;;;;;7.98;41.04;100310.28;4983219;28;96953;-71
2022/02/14 06:26:06;;;;;;;8.30;3.08;;;;;;;7.87;41.23;100299.25;4989755;28;101532;-70
2022/02/14 06:28:37;;;;;;;20.67;3.50;;;;;;;8.07;40.96;100317.88;4989031;28;99121;-71
2022/02/14 06:31:04;;;;;;;12.75;3.83;;;;;;;7.76;41.24;100317.09;4983444;28;96899;-69
2022/02/14 06:33:30;;;;;;;8.48;3.67;;;;;;;7.57;41.55;100308.91;4986503;28;96826;-70
2022/02/14 06:35:57;;;;;;;8.85;3.67;;;;;;;8.23;40.41;100308.56;4985553;28;98400;-71
2022/02/14 06:38:23;;;;;;;7.97;3.35;;;;;;;7.98;41.12;100298.00;4984229;28;99496;-70
2022/02/14 06:40:51;;;;;;;10.40;3.92;;;;;;;8.01;40.80;100302.28;4988044;28;97407;-70
2022/02/14 06:43:17;;;;;;;8.32;3.97;;;;;;;7.99;40.67;100298.84;4992671;28;96949;-69
2022/02/14 06:45:44;;;;;;;9.35;3.38;;;;;;;7.87;41.03;100301.88;4983618;28;98618;-70
2022/02/14 06:48:10;;;;;;;13.18;3.95;;;;;;;8.04;40.63;100291.66;4988999;28;99182;-70
2022/02/14 06:50:37;;;;;;;9.57;3.63;;;;;;;8.28;40.34;100292.63;4984880;28;97080;-69
2022/02/14 06:53:03;;;;;;;8.68;4.18;;;;;;;8.71;39.36;100299.97;4987974;28;96926;-71
2022/02/14 06:55:29;;;;;;;9.18;3.95;;;;;;;8.49;39.54;100291.94;4984840;28;99241;-70
2022/02/14 06:57:57;;;;;;;11.38;3.97;;;;;;;8.15;40.33;100297.44;4983979;28;98807;-71
2022/02/14 07:00:24;;;;;;;9.07;4.15;;;;;;;8.21;39.97;100297.22;4984980;28;97756;-72
2022/02/14 07:02:51;;;;;;;9.52;3.60;;;;;;;8.44;39.83;100280.72;4986778;28;97348;-71
2022/02/14 07:05:21;;;;;;;10.82;3.65;;;;;;;8.41;39.73;100278.16;4984208;28;102465;-72
2022/02/14 07:07:49;;;;;;;10.57;3.78;;;;;;;8.79;39.12;100290.03;4987673;28;98764;-70
2022/02/14 07:10:16;;;;;;;14.18;4.35;;;;;;;8.63;39.46;100291.47;4986093;28;96747;-71
2022/02/14 07:12:43;;;;;;;10.70;4.03;;;;;;;8.63;39.53;100280.94;4982756;28;96893;-71
2022/02/14 07:15:11;;;;;;;13.43;4.43;;;;;;;8.33;39.88;100282.84;4980056;28;98352;-70
2022/02/14 07:17:37;;;;;;;10.20;4.25;;;;;;;8.10;40.53;100286.19;4984021;28;97593;-71
2022/02/14 07:20:05;;;;;;;9.15;3.88;;;;;;;8.08;40.19;100281.88;4987841;28;96972;-70
2022/02/14 07:22:31;;;;;;;10.15;4.38;;;;;;;8.11;40.38;100294.97;4980733;28;99039;-69
2022/02/14 07:24:58;;;;;;;8.05;4.32;;;;;;;7.87;40.79;100289.59;4988941;28;98198;-69
2022/02/14 07:27:24;;;;;;;8.48;3.90;;;;;;;8.38;40.15;100283.56;4988458;28;99876;-70
2022/02/14 07:29:50;;;;;;;15.95;4.55;;;;;;;8.20;40.30;100287.63;4983835;28;96810;-70
2022/02/14 07:32:19;;;;;;;6.50;3.90;;;;;;;8.58;39.70;100277.59;4987276;28;96786;-71
2022/02/14 07:34:46;;;;;;;11.50;4.22;;;;;;;8.81;39.32;100280.28;4983551;28;99158;-71
2022/02/14 07:37:12;;;;;;;17.10;4.55;;;;;;;8.61;39.19;100283.59;4988077;28;99080;-71
2022/02/14 07:39:38;;;;;;;8.45;3.97;;;;;;;8.96;38.62;100284.16;4986970;28;98712;-70
2022/02/14 07:42:05;;;;;;;9.18;4.03;;;;;;;8.85;39.44;100281.91;4982388;28;96908;-71
2022/02/14 07:44:31;;;;;;;8.70;3.38;;;;;;;9.00;38.72;100289.25;4991032;28;99474;-70
2022/02/14 07:46:57;;;;;;;8.52;3.50;;;;;;;8.46;39.39;100283.28;4990411;28;100106;-72
2022/02/14 07:49:25;;;;;;;9.35;3.60;;;;;;;8.75;39.25;100276.09;4988047;28;96870;-72
2022/02/14 07:51:52;;;;;;;9.13;3.67;;;;;;;8.62;39.57;100273.94;4990792;28;97582;-70
2022/02/14 07:54:18;;;;;;;9.90;4.72;;;;;;;8.87;39.19;100280.06;4989932;28;98903;-72
2022/02/14 07:56:45;;;;;;;15.82;4.10;;;;;;;8.84;38.84;100268.78;4985882;28;99661;-70
2022/02/14 07:59:12;;;;;;;15.10;4.15;;;;;;;9.09;38.38;100269.59;4986731;28;97852;-71
2022/02/14 08:01:40;;;;;;;10.73;3.72;;;;;;;9.25;37.86;100276.03;5005666;22;99909;-79
2022/02/14 08:04:06;;;;;;;11.50;4.30;;;;;;;9.51;37.60;100272.41;4997784;28;98508;-77
2022/02/14 08:06:35;;;;;;;8.85;3.75;;;;;;;9.55;37.34;100274.00;4993328;28;97349;-77
2022/02/14 08:09:02;;;;;;;14.50;3.90;;;;;;;9.67;37.27;100277.94;4994783;28;97973;-79
2022/02/14 08:11:28;;;;;;;7.00;3.47;;;;;;;9.63;37.41;100277.22;5015983;28;96749;-78
2022/02/14 08:13:55;;;;;;;7.10;3.50;;;;;;;9.32;37.84;100271.41;5016209;28;97749;-79
2022/02/14 08:16:22;;;;;;;7.93;3.45;;;;;;;9.69;37.26;100270.81;5016903;28;97430;-78
2022/02/14 08:18:48;;;;;;;8.40;3.55;;;;;;;9.85;36.78;100277.19;5012563;28;96668;-79
2022/02/14 08:21:15;;;;;;;8.75;3.45;;;;;;;9.43;37.19;100277.97;5014630;28;97028;-79
2022/02/14 08:23:43;;;;;;;9.27;3.45;;;;;;;9.67;36.82;100268.25;5013977;27;100056;-80
2022/02/14 08:26:10;;;;;;;9.38;3.75;;;;;;;9.90;37.19;100264.72;5011141;27;97616;-80
2022/02/14 08:28:38;;;;;;;12.68;3.70;;;;;;;10.09;36.79;100260.41;5011933;27;96512;-79
2022/02/14 08:31:05;;;;;;;11.63;3.55;;;;;;;10.02;36.22;100256.28;5016097;27;96752;-80
2022/02/14 08:33:32;;;;;;;10.25;3.35;;;;;;;10.21;36.37;100254.63;5014389;28;97538;-78
2022/02/14 08:35:59;;;;;;;9.32;3.72;;;;;;;10.02;36.40;100256.28;5009410;28;101721;-79
2022/02/14 08:38:26;;;;;;;8.40;3.05;;;;;;;9.95;36.37;100252.19;5017388;27;96693;-79
2022/02/14 08:40:54;;;;;;;8.35;3.15;;;;;;;9.76;36.81;100256.47;5022940;27;97009;-79
2022/02/14 08:43:20;;;;;;;7.63;3.05;;;;;;;10.10;36.12;100251.56;5013740;27;99583;-78
2022/02/14 08:45:47;;;;;;;5.07;3.00;;;;;;;9.98;36.54;100247.63;5015805;28;97720;-79
2022/02/14 08:48:14;;;;;;;6.88;3.17;;;;;;;10.11;36.28;100247.13;5019093;27;96753;-80
2022/02/14 08:50:42;;;;;;;8.00;3.75;;;;;;;10.15;36.17;100244.31;5014370;28;96604;-79
2022/02/14 08:53:08;;;;;;;9.52;3.60;;;;;;;10.44;35.70;100240.44;4997127;28;100277;-79
2022/02/14 08:55:35;;;;;;;8.02;3.22;;;;;;;10.28;35.58;100240.25;4991053;28;99591;-77
2022/02/14 08:58:03;;;;;;;11.07;3.17;;;;;;;10.93;35.09;100241.81;4988446;28;97123;-77
2022/02/14 09:00:30;;;;;;;7.15;3.60;;;;;;;10.93;34.53;100244.44;4988687;28;98862;-80
2022/02/14 09:02:56;;;;;;;10.00;3.60;;;;;;;10.94;34.93;100246.19;4974406;28;98976;-78
2022/02/14 09:05:23;;;;;;;5.13;2.70;;;;;;;10.39;35.29;100237.16;4988857;28;99242;-79
2022/02/14 09:07:50;;;;;;;9.65;3.25;;;;;;;10.61;35.08;100248.53;4991607;28;97522;-78
2022/02/14 09:10:26;;;;;;;8.50;3.13;;;;;;;10.64;35.08;100237.81;4987040;28;96828;-78
2022/02/14 09:12:52;;;;;;;14.15;3.63;;;;;;;10.65;35.24;100241.31;4992026;28;98209;-78
2022/02/14 09:15:20;;;;;;;7.65;3.08;;;;;;;10.52;35.03;100233.06;4989875;28;98957;-78
2022/02/14 09:17:47;;;;;;;9.30;3.17;;;;;;;11.03;34.63;100237.81;4988527;28;96933;-79
2022/02/14 09:20:17;;;;;;;8.35;2.80;;;;;;;10.92;34.93;100242.72;4994205;28;96878;-77
2022/02/14 09:22:43;;;;;;;6.32;3.08;;;;;;;11.31;34.29;100229.47;4991830;28;98997;-80
2022/02/14 09:25:10;;;;;;;10.50;3.10;;;;;;;11.50;33.80;100230.31;4999123;28;98762;-79
2022/02/14 09:27:36;;;;;;;14.60;3.47;;;;;;;11.15;34.18;100239.06;5007145;28;96679;-80
2022/02/14 09:30:03;;;;;;;5.60;2.85;;;;;;;11.54;33.86;100225.75;4999554;28;96781;-78
2022/02/14 09:32:31;;;;;;;8.40;3.72;;;;;;;11.17;34.00;100227.47;4990809;28;99880;-79
2022/02/14 09:34:58;;;;;;;9.85;3.10;;;;;;;11.45;33.28;100218.25;4992484;28;98751;-79
2022/02/14 09:37:25;;;;;;;6.03;2.75;;;;;;;11.63;33.61;100225.31;4992988;28;98941;-80
2022/02/14 09:39:51;;;;;;;6.93;2.90;;;;;;;11.95;32.96;100216.69;4988603;28;99592;-80
2022/02/14 09:42:18;;;;;;;10.90;2.97;;;;;;;12.12;32.74;100218.50;4991874;28;99257;-79
2022/02/14 09:44:46;;;;;;;13.13;2.92;;;;;;;12.31;32.68;100206.03;4986689;28;100974;-78
2022/02/14 09:47:17;;;;;;;8.82;3.83;;;;;;;12.30;32.70;100206.13;4992571;28;98769;-79
2022/02/14 09:49:45;;;;;;;11.95;3.08;;;;;;;11.83;33.00;100209.34;5000666;28;96798;-80
2022/02/14 09:52:12;;;;;;;5.95;2.83;;;;;;;11.66;33.38;100204.00;4996615;28;99966;-79
2022/02/14 09:54:39;;;;;;;9.10;2.50;;;;;;;12.13;32.82;100191.09;4994257;28;98836;-78
2022/02/14 09:57:05;;;;;;;12.27;2.88;;;;;;;11.93;32.61;100207.13;4994348;28;97325;-79
2022/02/14 09:59:32;;;;;;;6.97;2.65;;;;;;;11.77;33.06;100209.66;4991172;28;98684;-77
2022/02/14 10:01:58;;;;;;;7.45;2.92;;;;;;;11.85;32.68;100204.84;4988261;28;101062;-77
2022/02/14 10:04:25;;;;;;;9.13;3.13;;;;;;;12.74;31.93;100201.16;4993339;28;97681;-77
2022/02/14 10:06:53;;;;;;;5.55;2.50;;;;;;;12.41;31.98;100202.91;4996969;28;96923;-78
2022/02/14 10:09:22;;;;;;;4.75;2.80;;;;;;;12.82;31.55;100206.91;4994414;28;98802;-78
2022/02/14 10:12:01;;;;;;;10.43;3.40;;;;;;;12.21;32.25;100198.63;4997416;28;99959;-78
2022/02/14 10:14:28;;;;;;;10.10;3.05;;;;;;;12.10;32.59;100215.06;4992490;28;99236;-79
2022/02/14 10:17:00;;;;;;;5.68;2.50;;;;;;;12.34;32.46;100202.38;4990357;28;97234;-79
2022/02/14 10:19:27;;;;;;;5.93;2.80;;;;;;;12.45;32.27;100199.19;4988887;28;96879;-79
2022/02/14 10:21:55;;;;;;;6.85;2.95;;;;;;;13.07;31.49;100198.47;4993778;28;99212;-77
2022/02/14 10:24:22;;;;;;;5.97;2.85;;;;;;;13.13;31.19;100198.19;4986239;28;98759;-79
2022/02/14 10:26:49;;;;;;;6.65;2.50;;;;;;;13.23;31.16;100201.22;4993938;28;96767;-78
2022/02/14 10:29:19;;;;;;;5.90;2.90;;;;;;;12.63;31.65;100185.81;4982914;28;97893;-78
2022/02/14 10:31:48;;;;;;;8.18;3.80;;;;;;;12.80;31.86;100192.88;4991242;28;99790;-78
2022/02/14 10:34:16;;;;;;;4.97;2.65;;;;;;;13.23;31.65;100187.94;4990462;28;98947;-78
2022/02/14 10:36:44;;;;;;;12.65;3.40;;;;;;;13.43;31.17;100195.66;4994884;28;96849;-79
2022/02/14 10:39:15;;;;;;;7.18;2.95;;;;;;;13.68;30.74;100198.63;4996810;28;97999;-79
2022/02/14 10:41:44;;;;;;;5.43;2.90;;;;;;;13.53;30.88;100197.69;4990731;28;98910;-80
2022/02/14 10:44:13;;;;;;;5.68;2.88;;;;;;;13.52;31.08;100197.81;5007884;28;98875;-82
2022/02/14 10:46:42;;;;;;;9.65;3.35;;;;;;;13.59;30.92;100193.84;5018243;27;97805;-81
2022/02/14 10:49:09;;;;;;;7.63;2.85;;;;;;;13.84;30.67;100188.00;5010002;27;96646;-81
2022/02/14 10:51:35;;;;;;;9.35;2.35;;;;;;;13.74;30.91;100195.63;4994496;28;98926;-80
2022/02/14 10:54:06;;;;;;;10.82;3.35;;;;;;;13.70;30.76;100194.09;4991057;28;99355;-79
2022/02/14 10:56:41;;;;;;;7.60;2.63;;;;;;;14.02;30.30;100194.03;4993228;28;96767;-79
2022/02/14 10:59:11;;;;;;;4.80;2.80;;;;;;;13.66;30.88;100192.53;4991910;28;98041;-78
2022/02/14 11:01:40;;;;;;;6.72;2.65;;;;;;;13.69;30.89;100207.47;4991191;28;99108;-80
2022/02/14 11:04:07;;;;;;;8.55;2.90;;;;;;;13.78;30.87;100214.91;4985721;28;99254;-78
2022/02/14 11:06:37;;;;;;;6.90;2.60;;;;;;;13.77;30.99;100198.13;4995059;28;98898;-78
2022/02/14 11:09:04;;;;;;;9.02;2.67;;;;;;;14.17;30.52;100195.81;4989774;28;96811;-78
2022/02/14 11:11:36;;;;;;;6.45;3.28;;;;;;;14.77;30.19;100200.09;4983033;28;99173;-78
2022/02/14 11:14:05;;;;;;;8.48;3.22;;;;;;;14.35;30.41;100192.06;4988270;28;99344;-79
2022/02/14 11:16:35;;;;;;;5.45;2.75;;;;;;;13.98;31.21;100194.19;4990523;28;96892;-77
2022/02/14 11:19:03;;;;;;;5.80;3.00;;;;;;;14.19;31.19;100194.75;4991171;28;98817;-78
2022/02/14 11:21:33;;;;;;;6.80;2.70;;;;;;;14.08;31.21;100189.22;4991428;28;102068;-77
2022/02/14 11:24:14;;;;;;;5.72;2.63;;;;;;;14.38;30.89;100186.56;4990321;28;97661;-78
2022/02/14 11:26:45;;;;;;;7.35;2.80;;;;;;;14.19;31.39;100189.44;5004438;28;97105;-77